createdAt,value
2023-04-12T00:01:08.565Z,9.70
2023-04-12T00:03:36.357Z,9.72
2023-04-12T00:06:07.217Z,9.66
2023-04-12T00:08:35.427Z,9.69
2023-04-12T00:11:03.990Z,9.79
2023-04-12T00:13:31.857Z,9.85
2023-04-12T00:15:59.344Z,9.86
2023-04-12T00:18:27.443Z,9.85
2023-04-12T00:20:56.114Z,9.79
2023-04-12T00:23:25.099Z,9.81
2023-04-12T00:25:52.774Z,9.65
2023-04-12T00:28:20.304Z,9.67
2023-04-12T00:30:47.894Z,9.55
2023-04-12T00:33:15.361Z,9.82
2023-04-12T00:35:42.934Z,9.84
2023-04-12T00:38:10.970Z,9.74
2023-04-12T00:40:43.765Z,9.73
2023-04-12T00:43:15.242Z,9.75
2023-04-12T00:45:43.068Z,9.87
2023-04-12T00:48:10.579Z,9.73
2023-04-12T00:50:38.049Z,9.81
2023-04-12T00:53:05.522Z,9.53
2023-04-12T00:55:32.970Z,9.71
2023-04-12T00:58:01.748Z,9.62
2023-04-12T01:00:29.261Z,9.44
2023-04-12T01:02:56.994Z,9.32
2023-04-12T01:05:25.033Z,9.23
2023-04-12T01:08:00.714Z,9.14
2023-04-12T01:10:34.824Z,9.21
2023-04-12T01:13:09.836Z,9.14
2023-04-12T01:15:40.819Z,9.18
2023-04-12T01:18:11.034Z,9.15
2023-04-12T01:20:45.204Z,9.18
2023-04-12T01:23:18.891Z,8.93
2023-04-12T01:26:11.138Z,8.97
2023-04-12T01:28:43.729Z,8.85
2023-04-12T01:31:12.834Z,8.70
2023-04-12T01:33:42.036Z,8.74
2023-04-12T01:36:12.934Z,8.80
2023-04-12T01:38:41.540Z,8.82
2023-04-12T01:41:09.583Z,8.81
2023-04-12T01:43:42.765Z,8.67
2023-04-12T01:46:11.821Z,8.67
2023-04-12T01:48:39.867Z,8.67
2023-04-12T01:51:10.331Z,8.68
2023-04-12T01:53:44.818Z,8.73
2023-04-12T01:56:12.777Z,8.84
2023-04-12T01:58:42.100Z,8.52
2023-04-12T02:01:10.622Z,8.70
2023-04-12T02:03:38.704Z,8.67
2023-04-12T02:06:07.029Z,8.61
2023-04-12T02:08:34.514Z,8.48
2023-04-12T02:11:02.106Z,8.41
2023-04-12T02:13:29.545Z,8.45
2023-04-12T02:15:59.144Z,8.54
2023-04-12T02:18:27.855Z,8.34
2023-04-12T02:20:55.533Z,8.34
2023-04-12T02:23:23.027Z,8.50
2023-04-12T02:25:50.538Z,8.32
2023-04-12T02:28:18.008Z,8.19
2023-04-12T02:30:45.536Z,8.32
2023-04-12T02:33:15.569Z,8.42
2023-04-12T02:35:43.110Z,8.52
2023-04-12T02:38:10.640Z,8.72
2023-04-12T02:40:39.614Z,8.63
2023-04-12T02:43:07.339Z,8.57
2023-04-12T02:45:34.764Z,8.27
2023-04-12T02:48:02.296Z,8.53
2023-04-12T02:50:31.297Z,8.61
2023-04-12T02:52:58.752Z,8.60
2023-04-12T02:55:27.070Z,8.62
2023-04-12T02:57:55.549Z,8.39
2023-04-12T03:00:23.257Z,8.50
2023-04-12T03:02:51.384Z,8.46
2023-04-12T03:05:19.366Z,8.60
2023-04-12T03:07:48.944Z,8.50
2023-04-12T03:10:16.765Z,8.49
2023-04-12T03:12:44.220Z,8.58
2023-04-12T03:15:12.278Z,8.42
2023-04-12T03:17:39.772Z,8.21
2023-04-12T03:20:09.660Z,8.41
2023-04-12T03:22:37.506Z,8.35
2023-04-12T03:25:07.032Z,8.27
2023-04-12T03:27:34.467Z,8.17
2023-04-12T03:30:01.925Z,8.23
2023-04-12T03:32:29.369Z,8.35
2023-04-12T03:34:57.809Z,8.14
2023-04-12T03:37:25.470Z,8.36
2023-04-12T03:39:52.903Z,7.99
2023-04-12T03:42:32.407Z,8.02
2023-04-12T03:45:01.193Z,7.94
2023-04-12T03:47:28.917Z,8.13
2023-04-12T03:52:27.123Z,8.07
2023-04-12T03:54:54.602Z,7.99
2023-04-12T03:57:23.387Z,7.96
2023-04-12T03:59:51.934Z,8.00
2023-04-12T04:02:19.535Z,7.99
2023-04-12T04:04:47.126Z,7.83
2023-04-12T04:07:14.605Z,7.99
2023-04-12T04:09:42.061Z,7.94
2023-04-12T04:12:09.750Z,7.96
2023-04-12T04:14:38.549Z,7.93
2023-04-12T04:17:06.016Z,8.07
2023-04-12T04:19:33.474Z,8.13
2023-04-12T04:22:02.194Z,8.16
2023-04-12T04:24:29.874Z,8.28
2023-04-12T04:26:58.794Z,8.28
2023-04-12T04:29:27.661Z,8.22
2023-04-12T04:31:57.433Z,8.10
2023-04-12T04:34:25.297Z,8.14
2023-04-12T04:36:53.073Z,8.30
2023-04-12T04:39:20.573Z,8.14
2023-04-12T04:41:55.091Z,8.27
2023-04-12T04:44:22.686Z,8.26
2023-04-12T04:46:50.308Z,8.28
2023-04-12T04:49:19.090Z,8.28
2023-04-12T04:51:46.948Z,8.24
2023-04-12T04:54:14.799Z,8.10
2023-04-12T04:56:42.250Z,8.18
2023-04-12T04:59:09.720Z,8.21
2023-04-12T05:01:37.412Z,8.25
2023-04-12T05:04:05.096Z,8.46
2023-04-12T05:06:34.026Z,8.30
2023-04-12T05:09:01.637Z,8.32
2023-04-12T05:11:29.115Z,8.23
2023-04-12T05:13:56.547Z,8.29
2023-04-12T05:16:24.119Z,8.11
2023-04-12T05:18:51.590Z,8.29
2023-04-12T05:21:19.094Z,8.31
2023-04-12T05:23:48.697Z,8.13
2023-04-12T05:26:16.143Z,7.97
2023-04-12T05:28:43.630Z,8.07
2023-04-12T05:31:11.714Z,8.03
2023-04-12T05:33:39.230Z,8.16
2023-04-12T05:36:07.435Z,8.20
2023-04-12T05:38:34.931Z,8.09
2023-04-12T05:41:04.596Z,8.17
2023-04-12T05:43:32.938Z,8.22
2023-04-12T05:46:00.562Z,8.22
2023-04-12T05:48:28.078Z,8.28
2023-04-12T05:50:56.013Z,8.29
2023-04-12T05:53:23.844Z,8.20
2023-04-12T05:55:51.528Z,8.18
2023-04-12T05:58:20.383Z,8.26
2023-04-12T06:00:49.498Z,8.12
2023-04-12T06:03:17.214Z,8.13
2023-04-12T06:05:44.873Z,8.26
2023-04-12T06:08:14.531Z,8.20
2023-04-12T06:10:42.376Z,8.07
2023-04-12T06:13:09.852Z,8.26
2023-04-12T06:15:38.685Z,8.12
2023-04-12T06:18:08.104Z,8.00
2023-04-12T06:20:35.748Z,8.11
2023-04-12T06:23:03.266Z,7.84
2023-04-12T06:25:30.839Z,7.91
2023-04-12T06:27:58.341Z,8.05
2023-04-12T06:30:25.901Z,7.95
2023-04-12T06:32:54.781Z,7.80
2023-04-12T06:35:22.434Z,7.85
2023-04-12T06:37:49.972Z,7.88
2023-04-12T06:40:17.585Z,8.04
2023-04-12T06:42:45.056Z,8.20
2023-04-12T06:45:12.703Z,8.24
2023-04-12T06:47:40.244Z,8.14
2023-04-12T06:50:10.084Z,8.12
2023-04-12T06:52:37.623Z,8.16
2023-04-12T06:55:05.993Z,8.26
2023-04-12T06:57:33.490Z,8.35
2023-04-12T07:00:01.374Z,8.41
2023-04-12T07:02:28.869Z,8.18
2023-04-12T07:04:56.373Z,8.18
2023-04-12T07:07:25.210Z,8.29
2023-04-12T07:09:53.196Z,8.35
2023-04-12T07:12:20.835Z,8.29
2023-04-12T07:14:48.283Z,8.30
2023-04-12T07:17:15.755Z,8.39
2023-04-12T07:19:44.379Z,8.38
2023-04-12T07:22:13.682Z,8.57
2023-04-12T07:24:42.969Z,8.69
2023-04-12T07:27:11.039Z,8.58
2023-04-12T07:29:38.574Z,8.69
2023-04-12T07:32:06.579Z,8.72
2023-04-12T07:34:34.076Z,8.83
2023-04-12T07:37:01.760Z,8.88
2023-04-12T07:39:30.116Z,8.90
2023-04-12T07:41:58.901Z,8.88
2023-04-12T07:44:26.369Z,8.84
2023-04-12T07:46:53.805Z,8.79
2023-04-12T07:49:21.330Z,8.87
2023-04-12T07:51:48.793Z,8.67
2023-04-12T07:54:16.514Z,8.79
2023-04-12T07:57:00.551Z,8.77
2023-04-12T07:59:27.997Z,8.72
2023-04-12T08:01:55.623Z,8.72
2023-04-12T08:04:23.306Z,8.82
2023-04-12T08:06:50.904Z,8.76
2023-04-12T08:09:18.420Z,8.76
2023-04-12T08:11:47.214Z,8.85
2023-04-12T08:14:16.130Z,8.97
2023-04-12T08:16:43.606Z,8.96
2023-04-12T08:19:11.804Z,8.93
2023-04-12T08:21:39.291Z,9.03
2023-04-12T08:24:07.466Z,9.09
2023-04-12T08:26:34.881Z,9.27
2023-04-12T08:29:03.212Z,9.31
2023-04-12T08:31:32.117Z,9.30
2023-04-12T08:33:59.983Z,9.20
2023-04-12T08:36:28.155Z,9.13
2023-04-12T08:38:59.499Z,9.35
2023-04-12T08:41:27.332Z,9.38
2023-04-12T08:43:55.420Z,9.59
2023-04-12T08:46:23.608Z,9.50
2023-04-12T08:48:54.515Z,9.49
2023-04-12T08:51:22.814Z,9.53
2023-04-12T08:53:51.003Z,9.56
2023-04-12T08:56:18.521Z,9.44
2023-04-12T08:58:48.809Z,9.32
2023-04-12T09:01:17.371Z,9.51
2023-04-12T09:03:45.956Z,9.51
2023-04-12T09:06:15.574Z,9.53
2023-04-12T09:08:53.822Z,9.46
2023-04-12T09:11:25.610Z,9.57
2023-04-12T09:13:53.338Z,9.64
2023-04-12T09:16:35.427Z,9.81
2023-04-12T09:19:03.513Z,9.88
2023-04-12T09:21:34.527Z,9.99
2023-04-12T09:24:11.663Z,9.99
2023-04-12T09:26:41.210Z,10.04
2023-04-12T09:29:23.304Z,10.03
2023-04-12T09:31:56.947Z,9.96
2023-04-12T09:34:25.954Z,10.03
2023-04-12T09:36:56.868Z,9.87
2023-04-12T09:39:32.922Z,9.92
2023-04-12T09:42:14.870Z,10.12
2023-04-12T09:44:52.965Z,10.29
2023-04-12T09:47:20.521Z,10.34
2023-04-12T09:49:48.010Z,10.40
2023-04-12T09:52:16.967Z,10.26
2023-04-12T09:54:46.175Z,10.38
2023-04-12T09:57:14.249Z,10.28
2023-04-12T09:59:42.882Z,10.24
2023-04-12T10:02:15.109Z,10.22
2023-04-12T10:04:43.216Z,10.29
2023-04-12T10:07:11.844Z,10.32
2023-04-12T10:09:42.176Z,10.43
2023-04-12T10:12:11.090Z,10.48
2023-04-12T10:14:39.044Z,10.32
2023-04-12T10:17:06.751Z,10.22
2023-04-12T10:19:34.447Z,10.22
2023-04-12T10:22:02.772Z,10.29
2023-04-12T10:24:31.454Z,10.25
2023-04-12T10:27:03.184Z,10.30
2023-04-12T10:29:33.573Z,10.28
2023-04-12T10:32:20.777Z,10.37
2023-04-12T10:34:51.963Z,10.44
2023-04-12T10:37:19.506Z,10.50
2023-04-12T10:39:53.213Z,10.44
2023-04-12T10:42:23.954Z,10.33
2023-04-12T10:44:52.939Z,10.46
2023-04-12T10:48:01.697Z,10.50
2023-04-12T10:50:30.410Z,10.55
2023-04-12T10:53:24.906Z,10.47
2023-04-12T10:55:53.044Z,10.44
2023-04-12T10:58:59.762Z,10.38
2023-04-12T11:01:28.405Z,10.52
2023-04-12T11:04:16.869Z,10.58
2023-04-12T11:06:59.029Z,10.62
2023-04-12T11:09:28.073Z,10.66
2023-04-12T11:12:03.566Z,10.80
2023-04-12T11:14:38.707Z,10.65
2023-04-12T11:17:25.931Z,10.79
2023-04-12T11:19:58.410Z,10.83
2023-04-12T11:22:28.873Z,10.94
2023-04-12T11:24:58.007Z,10.98
2023-04-12T11:27:27.747Z,11.09
2023-04-12T11:29:58.093Z,11.23
2023-04-12T11:32:27.498Z,11.21
2023-04-12T11:34:56.800Z,11.33
2023-04-12T11:37:26.645Z,11.35
2023-04-12T11:39:56.361Z,11.37
2023-04-12T11:42:25.018Z,11.41
2023-04-12T11:44:58.977Z,11.51
2023-04-12T11:47:30.727Z,11.55
2023-04-12T11:49:59.892Z,11.54
2023-04-12T11:52:29.691Z,11.45
2023-04-12T11:54:58.834Z,11.66
2023-04-12T11:57:26.364Z,11.62
2023-04-12T11:59:53.858Z,11.40
2023-04-12T12:02:24.104Z,11.56
2023-04-12T12:04:56.106Z,11.57
2023-04-12T12:07:25.107Z,11.62
2023-04-12T12:09:52.790Z,11.74
2023-04-12T12:12:20.261Z,11.81
2023-04-12T12:14:48.248Z,11.81
2023-04-12T12:17:17.050Z,11.71
2023-04-12T12:19:45.809Z,11.85
2023-04-12T12:22:16.784Z,11.96
2023-04-12T12:24:48.578Z,12.10
2023-04-12T12:27:19.627Z,12.24
2023-04-12T12:29:50.357Z,12.22
2023-04-12T12:32:19.772Z,12.27
2023-04-12T12:34:55.090Z,11.97
2023-04-12T12:37:26.805Z,11.92
2023-04-12T12:40:13.732Z,11.96
2023-04-12T12:42:48.584Z,11.87
2023-04-12T12:45:17.852Z,12.03
2023-04-12T12:47:51.604Z,11.82
2023-04-12T12:50:21.073Z,12.03
2023-04-12T12:52:52.029Z,11.99
2023-04-12T12:55:21.131Z,11.99
2023-04-12T12:58:06.138Z,12.20
2023-04-12T13:00:34.785Z,12.11
2023-04-12T13:03:03.033Z,11.82
2023-04-12T13:05:30.996Z,11.75
2023-04-12T13:07:59.849Z,11.74
2023-04-12T13:10:27.431Z,11.76
2023-04-12T13:12:54.872Z,11.73
2023-04-12T13:15:24.265Z,11.74
2023-04-12T13:17:53.095Z,11.81
2023-04-12T13:20:20.975Z,11.65
2023-04-12T13:22:48.604Z,11.74
2023-04-12T13:25:19.691Z,11.79
2023-04-12T13:27:48.389Z,11.93
2023-04-12T13:30:16.042Z,11.96
2023-04-12T13:32:44.525Z,12.08
2023-04-12T13:35:12.162Z,12.27
2023-04-12T13:37:39.919Z,12.13
2023-04-12T13:40:08.545Z,12.35
2023-04-12T13:42:37.403Z,12.55
2023-04-12T13:45:05.436Z,12.66
2023-04-12T13:47:33.696Z,12.65
2023-04-12T13:50:01.549Z,12.86
2023-04-12T13:52:29.057Z,12.84
2023-04-12T13:54:58.549Z,12.96
2023-04-12T13:57:26.092Z,12.95
2023-04-12T13:59:54.945Z,12.93
2023-04-12T14:02:22.509Z,12.98
2023-04-12T14:04:52.522Z,12.76
2023-04-12T14:07:20.480Z,12.98
2023-04-12T14:09:48.767Z,12.72
2023-04-12T14:12:16.344Z,12.89
2023-04-12T14:14:43.848Z,12.82
2023-04-12T14:17:12.723Z,13.02
2023-04-12T14:19:40.273Z,13.21
2023-04-12T14:22:07.741Z,12.87
2023-04-12T14:24:35.783Z,12.67
2023-04-12T14:27:04.447Z,12.67
2023-04-12T14:29:31.949Z,12.46
2023-04-12T14:31:59.489Z,12.59
2023-04-12T14:34:28.537Z,12.25
2023-04-12T14:36:56.261Z,12.41
2023-04-12T14:39:24.447Z,12.30
2023-04-12T14:41:51.914Z,12.36
2023-04-12T14:44:20.750Z,12.32
2023-04-12T14:46:48.992Z,12.23
2023-04-12T14:49:16.510Z,12.14
2023-04-12T14:51:45.748Z,11.96
2023-04-12T14:54:13.264Z,12.09
2023-04-12T14:56:47.800Z,12.02
2023-04-12T14:59:18.881Z,11.94
2023-04-12T15:01:46.502Z,12.17
2023-04-12T15:04:14.124Z,12.36
2023-04-12T15:06:44.701Z,12.51
2023-04-12T15:09:15.580Z,12.40
2023-04-12T15:11:46.167Z,12.49
2023-04-12T15:14:17.688Z,12.65
2023-04-12T15:16:46.305Z,12.61
2023-04-12T15:19:19.996Z,12.51
2023-04-12T15:21:51.003Z,12.33
2023-04-12T15:24:19.909Z,12.52
2023-04-12T15:26:48.582Z,12.29
2023-04-12T15:29:16.827Z,12.13
2023-04-12T15:31:44.452Z,12.20
2023-04-12T15:34:13.264Z,12.47
2023-04-12T15:36:42.975Z,12.55
2023-04-12T15:39:10.787Z,12.81
2023-04-12T15:41:40.617Z,12.76
2023-04-12T15:44:09.472Z,12.80
2023-04-12T15:46:36.971Z,12.84
2023-04-12T15:49:05.415Z,12.70
2023-04-12T15:51:33.329Z,12.63
2023-04-12T15:54:01.002Z,12.57
2023-04-12T15:56:29.727Z,12.68
2023-04-12T15:58:59.037Z,12.77
2023-04-12T16:01:26.678Z,12.91
2023-04-12T16:03:55.578Z,13.05
2023-04-12T16:06:25.110Z,13.08
2023-04-12T16:08:54.392Z,12.93
2023-04-12T16:11:23.120Z,12.76
2023-04-12T16:13:51.507Z,13.02
2023-04-12T16:16:22.865Z,12.90
2023-04-12T16:18:52.957Z,12.57
2023-04-12T16:21:22.193Z,12.59
2023-04-12T16:23:51.246Z,12.43
2023-04-12T16:26:21.537Z,12.66
2023-04-12T16:28:49.127Z,12.59
2023-04-12T16:31:16.676Z,12.61
2023-04-12T16:33:45.550Z,12.71
2023-04-12T16:36:13.694Z,12.56
2023-04-12T16:38:41.172Z,12.68
2023-04-12T16:41:08.669Z,12.77
2023-04-12T16:43:36.241Z,12.86
2023-04-12T16:46:05.804Z,12.91
2023-04-12T16:48:33.804Z,12.76
2023-04-12T16:51:03.454Z,12.67
2023-04-12T16:53:30.996Z,12.56
2023-04-12T16:56:01.593Z,12.51
2023-04-12T16:58:29.210Z,12.56
2023-04-12T17:00:57.721Z,12.56
2023-04-12T17:03:25.722Z,12.43
2023-04-12T17:05:53.284Z,12.50
2023-04-12T17:08:22.609Z,12.54
2023-04-12T17:10:50.772Z,12.45
2023-04-12T17:13:20.203Z,12.35
2023-04-12T17:15:48.667Z,12.20
2023-04-12T17:18:16.304Z,12.02
2023-04-12T17:20:44.012Z,12.01
2023-04-12T17:23:11.786Z,11.89
2023-04-12T17:25:41.600Z,11.66
2023-04-12T17:28:09.451Z,11.81
2023-04-12T17:30:37.069Z,11.72
2023-04-12T17:33:07.184Z,11.70
2023-04-12T17:35:34.824Z,11.81
2023-04-12T17:38:02.327Z,11.90
2023-04-12T17:40:29.821Z,11.84
2023-04-12T17:42:58.602Z,11.77
2023-04-12T17:45:26.336Z,11.77
2023-04-12T17:47:54.562Z,11.79
2023-04-12T17:50:22.408Z,11.66
2023-04-12T17:52:49.880Z,11.73
2023-04-12T17:55:19.354Z,11.89
2023-04-12T17:57:46.815Z,11.85
2023-04-12T18:00:18.750Z,11.81
2023-04-12T18:02:46.795Z,11.95
2023-04-12T18:05:14.413Z,11.88
2023-04-12T18:07:42.451Z,11.80
2023-04-12T18:10:12.328Z,11.65
2023-04-12T18:12:40.795Z,11.68
2023-04-12T18:15:09.636Z,11.53
2023-04-12T18:17:39.556Z,11.52
2023-04-12T18:20:10.466Z,11.57
2023-04-12T18:22:38.124Z,11.58
2023-04-12T18:25:06.330Z,11.48
2023-04-12T18:27:33.778Z,11.44
2023-04-12T18:30:03.203Z,11.46
2023-04-12T18:32:30.886Z,11.46
2023-04-12T18:34:59.881Z,11.48
2023-04-12T18:37:27.943Z,11.56
2023-04-12T18:39:55.602Z,11.58
2023-04-12T18:42:23.142Z,11.52
2023-04-12T18:44:51.120Z,11.47
2023-04-12T18:47:18.758Z,11.48
2023-04-12T18:49:46.458Z,11.53
2023-04-12T18:52:15.650Z,11.28
2023-04-12T18:54:43.245Z,11.02
2023-04-12T18:57:10.748Z,10.59
2023-04-12T18:59:38.330Z,10.39
2023-04-12T19:02:05.986Z,10.38
2023-04-12T19:04:33.453Z,9.87
2023-04-12T19:07:01.008Z,9.61
2023-04-12T19:09:29.904Z,9.50
2023-04-12T19:11:57.407Z,9.29
2023-04-12T19:14:25.305Z,9.01
2023-04-12T19:16:53.032Z,8.95
2023-04-12T19:19:20.784Z,8.83
2023-04-12T19:21:48.336Z,8.74
2023-04-12T19:24:16.141Z,8.67
2023-04-12T19:26:47.249Z,8.54
2023-04-12T19:29:15.913Z,8.50
2023-04-12T19:31:47.126Z,8.47
2023-04-12T19:34:17.814Z,8.66
2023-04-12T19:36:45.718Z,8.74
2023-04-12T19:39:13.284Z,8.63
2023-04-12T19:41:40.969Z,8.65
2023-04-12T19:44:09.815Z,8.35
2023-04-12T19:46:38.746Z,8.58
2023-04-12T19:49:06.563Z,8.39
2023-04-12T19:51:34.532Z,8.10
2023-04-12T19:54:02.708Z,8.04
2023-04-12T19:56:31.382Z,8.17
2023-04-12T19:58:59.952Z,7.83
2023-04-12T20:01:29.121Z,7.83
2023-04-12T20:03:56.930Z,7.68
2023-04-12T20:06:26.359Z,7.52
2023-04-12T20:08:53.898Z,7.73
2023-04-12T20:11:21.636Z,7.43
2023-04-12T20:13:49.195Z,7.33
2023-04-12T20:16:17.394Z,7.27
2023-04-12T20:18:46.808Z,7.11
2023-04-12T20:21:14.273Z,7.24
2023-04-12T20:23:42.236Z,7.05
2023-04-12T20:26:09.827Z,7.20
2023-04-12T20:28:37.571Z,7.42
2023-04-12T20:31:05.969Z,7.63
2023-04-12T20:33:33.585Z,7.33
2023-04-12T20:36:03.282Z,7.34
2023-04-12T20:38:30.767Z,7.51
2023-04-12T20:40:58.516Z,7.17
2023-04-12T20:43:26.264Z,7.10
2023-04-12T20:45:53.857Z,7.10
2023-04-12T20:48:21.862Z,7.25
2023-04-12T20:50:50.333Z,7.05
2023-04-12T20:53:19.183Z,7.35
2023-04-12T20:55:46.651Z,6.99
2023-04-12T20:58:15.198Z,7.01
2023-04-12T21:00:42.698Z,7.01
2023-04-12T21:03:10.966Z,6.74
2023-04-12T21:05:38.651Z,6.79
2023-04-12T21:08:07.393Z,6.97
2023-04-12T21:10:36.182Z,7.04
2023-04-12T21:13:03.682Z,6.92
2023-04-12T21:15:35.328Z,7.22
2023-04-12T21:18:04.118Z,6.78
2023-04-12T21:20:31.831Z,6.87
2023-04-12T21:22:59.291Z,6.82
2023-04-12T21:25:26.785Z,6.69
2023-04-12T21:27:55.596Z,6.78
2023-04-12T21:30:23.057Z,6.92
2023-04-12T21:32:51.663Z,6.92
2023-04-12T21:35:20.940Z,6.81
2023-04-12T21:37:49.082Z,6.61
2023-04-12T21:40:17.080Z,6.61
2023-04-12T21:42:45.192Z,6.56
2023-04-12T21:45:14.284Z,6.69
2023-04-12T21:47:42.618Z,6.77
2023-04-12T21:50:11.180Z,6.74
2023-04-12T21:52:40.017Z,6.57
2023-04-12T21:55:08.031Z,6.75
2023-04-12T21:57:36.343Z,6.83
2023-04-12T22:00:05.223Z,6.57
2023-04-12T22:02:34.184Z,6.83
2023-04-12T22:05:01.768Z,6.83
2023-04-12T22:07:29.215Z,6.81
2023-04-12T22:09:58.349Z,6.69
2023-04-12T22:12:26.714Z,6.66
2023-04-12T22:14:54.470Z,6.73
2023-04-12T22:17:22.219Z,6.60
2023-04-12T22:19:53.126Z,6.50
2023-04-12T22:22:20.765Z,6.59
2023-04-12T22:24:48.271Z,6.47
2023-04-12T22:27:16.190Z,6.54
2023-04-12T22:29:43.705Z,6.61
2023-04-12T22:32:11.188Z,6.47
2023-04-12T22:34:39.157Z,6.40
2023-04-12T22:37:08.661Z,6.52
2023-04-12T22:39:36.490Z,6.49
2023-04-12T22:42:04.056Z,6.61
2023-04-12T22:44:38.360Z,6.64
2023-04-12T22:47:07.424Z,6.49
2023-04-12T22:49:46.162Z,6.49
2023-04-12T22:52:14.955Z,6.32
2023-04-12T22:54:42.427Z,6.37
2023-04-12T22:57:09.867Z,6.36
2023-04-12T22:59:37.370Z,6.30
2023-04-12T23:02:05.007Z,6.22
2023-04-12T23:04:32.888Z,6.09
2023-04-12T23:07:01.256Z,6.29
2023-04-12T23:09:30.085Z,6.45
2023-04-12T23:11:57.488Z,6.23
2023-04-12T23:14:24.928Z,6.43
2023-04-12T23:16:52.384Z,6.34
2023-04-12T23:19:20.246Z,6.19
2023-04-12T23:21:47.695Z,6.32
2023-04-12T23:24:16.426Z,6.25
2023-04-12T23:26:46.007Z,6.43
2023-04-12T23:29:13.616Z,6.46
2023-04-12T23:31:41.630Z,6.32
2023-04-12T23:34:09.107Z,6.32
2023-04-12T23:36:36.645Z,6.14
2023-04-12T23:39:08.609Z,6.24
2023-04-12T23:41:36.140Z,6.37
2023-04-12T23:44:05.058Z,6.36
2023-04-12T23:46:32.701Z,6.29
2023-04-12T23:49:00.180Z,6.22
2023-04-12T23:51:28.081Z,6.02
2023-04-12T23:53:55.529Z,6.14
2023-04-12T23:56:23.008Z,5.99
2023-04-12T23:58:50.480Z,6.10
